Current Conditions
Mostly Cloudy
Conditions



Pressure
30.11 (inHG) - 1019.62 (mb)
Visibility

10.0 (miles) - 16.1 (km)
Temperature
64  °F
Temperature
64  °F
Dewpoint
100  %
 Humidity
Wind Speed
0  mph
0  kts
0  km/h
0  m/s
Wind Direction
N
45°
E
90°
135°
S
180°
225°
W
270°
315°
Calm

Due North
Airport Data
KPCW
Carl R Keller Field
Metar :KPCW 100435Z AUTO 00000KT 10SM BKN044 18/18 A3011 RMK AO2
Wed 10th August 00:35 am
Raw Metar Info
Raw METAR is the most common format in the world for the transmission of observational weather data. It is highly standardized through the International Civil Aviation Organization (ICAO), which allows it to be understood throughout most of the world.
API Info
Data Provided by
https://www.checkwx.com/weather/KPCW

Aviation Weather providing METAR, TAF, AIRMET, SIGMET and OUTLOOK Weather Reports
© Info
CSS/SVG/PHP scripts were developed by weather34.com for use in the weather34 template © 2015-2022

Guide Info provided by Metar-Wikipedia